LECO/LCG METAR and TAF weather

Enter ICAO airport designator
Station Type Date Time Source
LECO METAR 2019/10/15 03:30 UTC NOAA

LECO 150330Z 22007KT 9999 FEW040 11/09 Q1017 NOSIG


Station Type Date Time Source
LECO Decoded METAR 2019/10/15 03:30 UTC NOAA

La Coruna / Alvedro, Spain (LECO) 43-18N 008-23W 103M
Oct 14, 2019 - 11:30 PM EDT / 2019.10.15 0330 UTC
Wind: from the SW (220 degrees) at 8 MPH (7 KT):0
Visibility: greater than 7 mile(s):0
Sky conditions: mostly clear
Temperature: 51 F (11 C)
Dew Point: 48 F (9 C)
Relative Humidity: 87%
Pressure (altimeter): 30.03 in. Hg (1017 hPa)
ob: LECO 150330Z 22007KT 9999 FEW040 11/09 Q1017 NOSIG
cycle: 3

Station Type Date Time Source
LECO TAF 2019/10/15 03:30 UTC NOAA

TAF LECO 150200Z 1503/1603 22009KT 9999 SCT025 TX17/1515Z TN10/1506Z
TEMPO 1509/1515 22015G30KT
BECMG 1600/1602 22020KT PROB30
TEMPO 1512/1518 DZ BKN014

Example: see airport list